sensor_id;sensor_type;location;lat;lon;timestamp;P1;durP1;ratioP1;P2;durP2;ratioP2
55190;SDS011;41070;50.360;18.742;2022-12-18T00:15:16;43.00;;;14.00;;
55190;SDS011;41070;50.360;18.742;2022-12-18T00:18:20;39.50;;;13.10;;
55190;SDS011;41070;50.360;18.742;2022-12-18T00:21:07;38.20;;;14.10;;
55190;SDS011;41070;50.360;18.742;2022-12-18T00:23:56;44.00;;;15.50;;
55190;SDS011;41070;50.360;18.742;2022-12-18T00:26:32;32.40;;;12.20;;
55190;SDS011;41070;50.360;18.742;2022-12-18T00:31:52;37.40;;;12.80;;
55190;SDS011;41070;50.360;18.742;2022-12-18T00:34:45;38.50;;;12.90;;
55190;SDS011;41070;50.360;18.742;2022-12-18T00:37:24;35.60;;;11.70;;
55190;SDS011;41070;50.360;18.742;2022-12-18T00:40:02;38.60;;;13.40;;
55190;SDS011;41070;50.360;18.742;2022-12-18T00:42:56;32.40;;;12.50;;
55190;SDS011;41070;50.360;18.742;2022-12-18T01:23:31;36.40;;;12.20;;
55190;SDS011;41070;50.360;18.742;2022-12-18T02:18:40;32.00;;;12.20;;
55190;SDS011;41070;50.360;18.742;2022-12-18T02:27:23;32.90;;;12.50;;
55190;SDS011;41070;50.360;18.742;2022-12-18T02:33:08;42.10;;;14.00;;
55190;SDS011;41070;50.360;18.742;2022-12-18T02:36:09;33.10;;;13.10;;
55190;SDS011;41070;50.360;18.742;2022-12-18T02:39:39;37.00;;;12.70;;
55190;SDS011;41070;50.360;18.742;2022-12-18T02:42:39;30.60;;;11.50;;
55190;SDS011;41070;50.360;18.742;2022-12-18T02:45:33;34.10;;;10.40;;
55190;SDS011;41070;50.360;18.742;2022-12-18T09:14:47;90.60;;;29.80;;
55190;SDS011;41070;50.360;18.742;2022-12-18T09:17:27;85.40;;;30.40;;
55190;SDS011;41070;50.360;18.742;2022-12-18T09:20:16;57.20;;;21.80;;
55190;SDS011;41070;50.360;18.742;2022-12-18T09:22:51;77.20;;;27.30;;
55190;SDS011;41070;50.360;18.742;2022-12-18T09:25:23;84.80;;;31.60;;
55190;SDS011;41070;50.360;18.742;2022-12-18T09:27:55;85.30;;;30.00;;
55190;SDS011;41070;50.360;18.742;2022-12-18T09:30:27;65.80;;;23.60;;
55190;SDS011;41070;50.360;18.742;2022-12-18T09:33:03;58.30;;;20.90;;
55190;SDS011;41070;50.360;18.742;2022-12-18T09:35:36;68.60;;;24.10;;
55190;SDS011;41070;50.360;18.742;2022-12-18T09:40:46;68.20;;;22.90;;
55190;SDS011;41070;50.360;18.742;2022-12-18T09:43:29;57.30;;;19.80;;
55190;SDS011;41070;50.360;18.742;2022-12-18T09:46:20;57.00;;;21.90;;
55190;SDS011;41070;50.360;18.742;2022-12-18T09:48:59;53.40;;;22.40;;
55190;SDS011;41070;50.360;18.742;2022-12-18T09:54:09;59.80;;;23.90;;
55190;SDS011;41070;50.360;18.742;2022-12-18T09:56:46;58.70;;;23.50;;
55190;SDS011;41070;50.360;18.742;2022-12-18T09:59:26;43.40;;;17.30;;
55190;SDS011;41070;50.360;18.742;2022-12-18T10:02:40;42.50;;;15.90;;
55190;SDS011;41070;50.360;18.742;2022-12-18T10:13:37;46.70;;;17.00;;
55190;SDS011;41070;50.360;18.742;2022-12-18T10:16:32;51.90;;;19.20;;
55190;SDS011;41070;50.360;18.742;2022-12-18T10:19:50;46.60;;;17.10;;
55190;SDS011;41070;50.360;18.742;2022-12-18T10:25:27;30.90;;;11.60;;
55190;SDS011;41070;50.360;18.742;2022-12-18T10:28:36;38.80;;;16.30;;
55190;SDS011;41070;50.360;18.742;2022-12-18T10:31:19;42.00;;;15.90;;
55190;SDS011;41070;50.360;18.742;2022-12-18T10:33:55;57.70;;;19.60;;
55190;SDS011;41070;50.360;18.742;2022-12-18T10:36:27;56.60;;;21.90;;
55190;SDS011;41070;50.360;18.742;2022-12-18T10:39:13;64.30;;;24.20;;
55190;SDS011;41070;50.360;18.742;2022-12-18T10:41:53;58.50;;;21.30;;
55190;SDS011;41070;50.360;18.742;2022-12-18T10:44:46;71.90;;;26.40;;
55190;SDS011;41070;50.360;18.742;2022-12-18T10:47:33;65.80;;;22.80;;
55190;SDS011;41070;50.360;18.742;2022-12-18T10:50:11;55.10;;;20.30;;
55190;SDS011;41070;50.360;18.742;2022-12-18T10:53:05;61.70;;;21.80;;
55190;SDS011;41070;50.360;18.742;2022-12-18T10:55:37;68.10;;;23.30;;
55190;SDS011;41070;50.360;18.742;2022-12-18T11:03:37;36.50;;;15.00;;
55190;SDS011;41070;50.360;18.742;2022-12-18T11:06:11;37.30;;;14.50;;
55190;SDS011;41070;50.360;18.742;2022-12-18T11:08:58;45.10;;;16.10;;
55190;SDS011;41070;50.360;18.742;2022-12-18T11:11:32;42.80;;;15.60;;
55190;SDS011;41070;50.360;18.742;2022-12-18T11:14:12;41.50;;;15.30;;
55190;SDS011;41070;50.360;18.742;2022-12-18T11:16:46;34.20;;;14.40;;
55190;SDS011;41070;50.360;18.742;2022-12-18T11:19:31;41.10;;;16.50;;
55190;SDS011;41070;50.360;18.742;2022-12-18T11:22:19;36.50;;;15.30;;
55190;SDS011;41070;50.360;18.742;2022-12-18T11:27:51;49.10;;;18.80;;
55190;SDS011;41070;50.360;18.742;2022-12-18T11:30:46;36.50;;;14.90;;
55190;SDS011;41070;50.360;18.742;2022-12-18T18:28:55;123.00;;;48.60;;
55190;SDS011;41070;50.360;18.742;2022-12-18T18:31:29;103.90;;;44.00;;
55190;SDS011;41070;50.360;18.742;2022-12-18T18:34:01;100.30;;;39.90;;
55190;SDS011;41070;50.360;18.742;2022-12-18T18:36:32;94.10;;;38.40;;
55190;SDS011;41070;50.360;18.742;2022-12-18T18:39:04;74.90;;;30.10;;
55190;SDS011;41070;50.360;18.742;2022-12-18T18:41:35;78.80;;;29.90;;
55190;SDS011;41070;50.360;18.742;2022-12-18T18:44:06;84.60;;;33.60;;
55190;SDS011;41070;50.360;18.742;2022-12-18T18:46:50;85.40;;;34.60;;
55190;SDS011;41070;50.360;18.742;2022-12-18T18:49:23;94.90;;;35.10;;
55190;SDS011;41070;50.360;18.742;2022-12-18T18:51:55;92.80;;;37.60;;
55190;SDS011;41070;50.360;18.742;2022-12-18T18:54:27;76.60;;;30.40;;
55190;SDS011;41070;50.360;18.742;2022-12-18T18:56:59;72.10;;;30.10;;
55190;SDS011;41070;50.360;18.742;2022-12-18T18:59:31;80.60;;;31.70;;
55190;SDS011;41070;50.360;18.742;2022-12-18T19:02:02;79.20;;;32.80;;
55190;SDS011;41070;50.360;18.742;2022-12-18T19:04:36;78.30;;;30.40;;
55190;SDS011;41070;50.360;18.742;2022-12-18T19:07:09;76.70;;;30.20;;
55190;SDS011;41070;50.360;18.742;2022-12-18T19:09:40;75.60;;;29.50;;
55190;SDS011;41070;50.360;18.742;2022-12-18T19:12:17;81.50;;;32.50;;
55190;SDS011;41070;50.360;18.742;2022-12-18T19:15:11;78.60;;;33.70;;
55190;SDS011;41070;50.360;18.742;2022-12-18T19:17:44;83.40;;;33.00;;
55190;SDS011;41070;50.360;18.742;2022-12-18T19:20:16;89.20;;;31.10;;
55190;SDS011;41070;50.360;18.742;2022-12-18T19:22:51;80.10;;;29.60;;
55190;SDS011;41070;50.360;18.742;2022-12-18T19:25:27;81.70;;;35.20;;
55190;SDS011;41070;50.360;18.742;2022-12-18T19:28:01;79.40;;;30.30;;
55190;SDS011;41070;50.360;18.742;2022-12-18T19:30:35;76.20;;;31.60;;
55190;SDS011;41070;50.360;18.742;2022-12-18T19:33:11;85.80;;;34.40;;
55190;SDS011;41070;50.360;18.742;2022-12-18T19:35:45;74.90;;;27.70;;
55190;SDS011;41070;50.360;18.742;2022-12-18T19:41:07;78.20;;;29.00;;
55190;SDS011;41070;50.360;18.742;2022-12-18T19:43:40;81.30;;;29.40;;
55190;SDS011;41070;50.360;18.742;2022-12-18T19:46:14;83.90;;;33.20;;
55190;SDS011;41070;50.360;18.742;2022-12-18T19:48:49;82.40;;;31.10;;
55190;SDS011;41070;50.360;18.742;2022-12-18T19:51:22;81.00;;;30.90;;
55190;SDS011;41070;50.360;18.742;2022-12-18T19:53:58;80.90;;;34.80;;
55190;SDS011;41070;50.360;18.742;2022-12-18T19:56:45;92.50;;;33.60;;
55190;SDS011;41070;50.360;18.742;2022-12-18T19:59:19;79.80;;;32.10;;
55190;SDS011;41070;50.360;18.742;2022-12-18T20:01:51;78.70;;;31.70;;
55190;SDS011;41070;50.360;18.742;2022-12-18T20:07:26;84.10;;;32.80;;
55190;SDS011;41070;50.360;18.742;2022-12-18T20:10:04;62.80;;;22.60;;
55190;SDS011;41070;50.360;18.742;2022-12-18T20:12:38;60.10;;;25.30;;
55190;SDS011;41070;50.360;18.742;2022-12-18T20:15:15;78.60;;;30.60;;
55190;SDS011;41070;50.360;18.742;2022-12-18T20:20:38;74.50;;;28.10;;
55190;SDS011;41070;50.360;18.742;2022-12-18T20:23:17;73.70;;;29.60;;
55190;SDS011;41070;50.360;18.742;2022-12-18T20:26:08;65.60;;;24.70;;
55190;SDS011;41070;50.360;18.742;2022-12-18T20:28:52;91.10;;;28.90;;
55190;SDS011;41070;50.360;18.742;2022-12-18T20:31:26;68.60;;;28.70;;
55190;SDS011;41070;50.360;18.742;2022-12-18T20:33:57;63.00;;;24.20;;
55190;SDS011;41070;50.360;18.742;2022-12-18T20:36:28;80.50;;;27.00;;
55190;SDS011;41070;50.360;18.742;2022-12-18T20:38:59;76.40;;;28.30;;
55190;SDS011;41070;50.360;18.742;2022-12-18T20:41:33;81.20;;;32.20;;
55190;SDS011;41070;50.360;18.742;2022-12-18T20:46:41;74.60;;;27.70;;
55190;SDS011;41070;50.360;18.742;2022-12-18T20:49:15;111.60;;;39.10;;
55190;SDS011;41070;50.360;18.742;2022-12-18T20:51:48;82.90;;;32.50;;
55190;SDS011;41070;50.360;18.742;2022-12-18T20:54:21;80.60;;;34.10;;
55190;SDS011;41070;50.360;18.742;2022-12-18T20:56:55;57.50;;;25.20;;
55190;SDS011;41070;50.360;18.742;2022-12-18T20:59:27;81.50;;;31.50;;
55190;SDS011;41070;50.360;18.742;2022-12-18T21:01:59;92.60;;;33.90;;
55190;SDS011;41070;50.360;18.742;2022-12-18T21:04:30;68.30;;;29.80;;
55190;SDS011;41070;50.360;18.742;2022-12-18T21:07:01;98.20;;;33.80;;
55190;SDS011;41070;50.360;18.742;2022-12-18T21:09:33;82.00;;;33.60;;
55190;SDS011;41070;50.360;18.742;2022-12-18T21:12:05;84.30;;;31.30;;
55190;SDS011;41070;50.360;18.742;2022-12-18T21:14:59;93.40;;;30.70;;
55190;SDS011;41070;50.360;18.742;2022-12-18T21:17:31;85.70;;;32.40;;
55190;SDS011;41070;50.360;18.742;2022-12-18T21:20:02;80.00;;;31.20;;
55190;SDS011;41070;50.360;18.742;2022-12-18T21:22:33;79.70;;;33.40;;
55190;SDS011;41070;50.360;18.742;2022-12-18T21:25:18;72.20;;;27.30;;
55190;SDS011;41070;50.360;18.742;2022-12-18T21:27:49;69.40;;;30.50;;
55190;SDS011;41070;50.360;18.742;2022-12-18T21:30:20;81.80;;;31.20;;
55190;SDS011;41070;50.360;18.742;2022-12-18T21:32:52;69.80;;;25.20;;
55190;SDS011;41070;50.360;18.742;2022-12-18T21:38:19;79.80;;;28.40;;
55190;SDS011;41070;50.360;18.742;2022-12-18T21:40:52;88.50;;;29.80;;
55190;SDS011;41070;50.360;18.742;2022-12-18T21:43:23;78.30;;;26.30;;
55190;SDS011;41070;50.360;18.742;2022-12-18T21:46:11;87.60;;;29.10;;
55190;SDS011;41070;50.360;18.742;2022-12-18T21:48:42;66.90;;;25.50;;
55190;SDS011;41070;50.360;18.742;2022-12-18T21:51:13;65.70;;;25.00;;
55190;SDS011;41070;50.360;18.742;2022-12-18T21:53:45;57.90;;;22.50;;
55190;SDS011;41070;50.360;18.742;2022-12-18T21:56:16;81.90;;;31.20;;
55190;SDS011;41070;50.360;18.742;2022-12-18T21:58:48;62.90;;;22.90;;
55190;SDS011;41070;50.360;18.742;2022-12-18T22:01:20;65.20;;;24.10;;
55190;SDS011;41070;50.360;18.742;2022-12-18T22:03:52;66.80;;;24.90;;
55190;SDS011;41070;50.360;18.742;2022-12-18T22:06:24;58.00;;;23.90;;
55190;SDS011;41070;50.360;18.742;2022-12-18T22:08:55;68.10;;;24.10;;
55190;SDS011;41070;50.360;18.742;2022-12-18T22:11:26;64.60;;;25.60;;
55190;SDS011;41070;50.360;18.742;2022-12-18T22:13:57;69.50;;;26.80;;
55190;SDS011;41070;50.360;18.742;2022-12-18T22:16:29;76.60;;;24.60;;
55190;SDS011;41070;50.360;18.742;2022-12-18T22:19:00;67.30;;;25.60;;
55190;SDS011;41070;50.360;18.742;2022-12-18T22:21:32;52.80;;;20.40;;
55190;SDS011;41070;50.360;18.742;2022-12-18T22:24:11;61.50;;;23.70;;
55190;SDS011;41070;50.360;18.742;2022-12-18T22:26:45;53.90;;;20.50;;
55190;SDS011;41070;50.360;18.742;2022-12-18T22:29:18;59.90;;;21.00;;
55190;SDS011;41070;50.360;18.742;2022-12-18T22:32:09;41.00;;;15.40;;
55190;SDS011;41070;50.360;18.742;2022-12-18T22:34:45;69.30;;;26.30;;
55190;SDS011;41070;50.360;18.742;2022-12-18T22:37:17;61.70;;;23.90;;
55190;SDS011;41070;50.360;18.742;2022-12-18T22:39:48;55.00;;;19.10;;
55190;SDS011;41070;50.360;18.742;2022-12-18T22:42:19;67.30;;;22.50;;
55190;SDS011;41070;50.360;18.742;2022-12-18T22:44:51;66.30;;;24.70;;
55190;SDS011;41070;50.360;18.742;2022-12-18T22:47:22;46.60;;;16.90;;
55190;SDS011;41070;50.360;18.742;2022-12-18T22:49:53;78.80;;;25.70;;
55190;SDS011;41070;50.360;18.742;2022-12-18T22:52:27;46.50;;;20.10;;
55190;SDS011;41070;50.360;18.742;2022-12-18T22:54:58;59.40;;;21.60;;
55190;SDS011;41070;50.360;18.742;2022-12-18T22:57:29;74.50;;;27.00;;
55190;SDS011;41070;50.360;18.742;2022-12-18T23:00:01;58.30;;;23.70;;
55190;SDS011;41070;50.360;18.742;2022-12-18T23:02:32;77.30;;;27.50;;
55190;SDS011;41070;50.360;18.742;2022-12-18T23:05:04;67.30;;;23.00;;
55190;SDS011;41070;50.360;18.742;2022-12-18T23:07:35;57.20;;;21.60;;
55190;SDS011;41070;50.360;18.742;2022-12-18T23:10:07;51.60;;;20.00;;
55190;SDS011;41070;50.360;18.742;2022-12-18T23:12:38;55.70;;;23.40;;
55190;SDS011;41070;50.360;18.742;2022-12-18T23:15:10;58.70;;;21.40;;
55190;SDS011;41070;50.360;18.742;2022-12-18T23:17:41;65.50;;;23.40;;
55190;SDS011;41070;50.360;18.742;2022-12-18T23:20:13;53.70;;;22.10;;
55190;SDS011;41070;50.360;18.742;2022-12-18T23:22:44;58.20;;;21.70;;
55190;SDS011;41070;50.360;18.742;2022-12-18T23:25:15;69.60;;;25.10;;
55190;SDS011;41070;50.360;18.742;2022-12-18T23:27:46;56.00;;;22.10;;
55190;SDS011;41070;50.360;18.742;2022-12-18T23:30:17;55.20;;;20.90;;
55190;SDS011;41070;50.360;18.742;2022-12-18T23:32:48;58.20;;;21.30;;
55190;SDS011;41070;50.360;18.742;2022-12-18T23:35:19;53.50;;;22.00;;
55190;SDS011;41070;50.360;18.742;2022-12-18T23:37:50;59.10;;;20.10;;
55190;SDS011;41070;50.360;18.742;2022-12-18T23:40:21;60.10;;;21.70;;
55190;SDS011;41070;50.360;18.742;2022-12-18T23:42:52;55.10;;;18.70;;
55190;SDS011;41070;50.360;18.742;2022-12-18T23:45:23;52.50;;;19.80;;
55190;SDS011;41070;50.360;18.742;2022-12-18T23:47:55;55.30;;;18.50;;
55190;SDS011;41070;50.360;18.742;2022-12-18T23:50:26;53.70;;;21.00;;
55190;SDS011;41070;50.360;18.742;2022-12-18T23:52:57;56.40;;;21.10;;
55190;SDS011;41070;50.360;18.742;2022-12-18T23:55:29;52.20;;;19.20;;
55190;SDS011;41070;50.360;18.742;2022-12-18T23:58:01;61.10;;;21.20;;
